createdAt,value
2023-03-12T00:01:50.409Z,3.05
2023-03-12T00:04:36.385Z,1.65
2023-03-12T00:07:21.800Z,1.00
2023-03-12T00:10:08.387Z,1.08
2023-03-12T00:12:53.698Z,2.27
2023-03-12T00:15:39.592Z,14.48
2023-03-12T00:18:25.320Z,6.60
2023-03-12T00:21:11.056Z,13.77
2023-03-12T00:23:56.840Z,14.55
2023-03-12T00:26:43.420Z,15.25
2023-03-12T00:29:28.973Z,17.75
2023-03-12T00:32:15.069Z,14.18
2023-03-12T00:35:00.646Z,9.38
2023-03-12T00:37:46.392Z,11.75
2023-03-12T00:40:31.695Z,12.60
2023-03-12T00:43:17.694Z,9.95
2023-03-12T00:46:03.058Z,6.90
2023-03-12T00:48:49.122Z,4.65
2023-03-12T00:51:34.293Z,6.65
2023-03-12T00:54:20.330Z,3.03
2023-03-12T00:57:06.143Z,0.65
2023-03-12T00:59:53.394Z,2.15
2023-03-12T01:02:39.292Z,0.85
2023-03-12T01:05:25.405Z,1.98
2023-03-12T01:08:12.294Z,0.82
2023-03-12T01:10:57.896Z,1.55
2023-03-12T01:13:44.701Z,1.50
2023-03-12T01:16:30.767Z,1.70
2023-03-12T01:19:16.120Z,1.85
2023-03-12T01:22:01.773Z,1.55
2023-03-12T01:24:48.302Z,1.70
2023-03-12T01:27:33.945Z,2.35
2023-03-12T01:30:19.222Z,0.98
2023-03-12T01:33:04.619Z,1.33
2023-03-12T01:35:50.962Z,1.77
2023-03-12T01:38:36.452Z,1.10
2023-03-12T01:41:22.940Z,1.13
2023-03-12T01:44:13.848Z,1.67
2023-03-12T01:46:59.470Z,1.65
2023-03-12T01:49:45.907Z,0.73
2023-03-12T01:52:35.881Z,1.20
2023-03-12T01:55:24.095Z,1.95
2023-03-12T01:58:09.775Z,0.85
2023-03-12T02:00:55.675Z,2.10
2023-03-12T02:03:42.171Z,0.80
2023-03-12T02:06:43.847Z,0.90
2023-03-12T02:09:30.815Z,1.10
2023-03-12T02:15:03.183Z,0.90
2023-03-12T02:17:48.471Z,1.48
2023-03-12T02:20:41.715Z,1.58
2023-03-12T02:23:52.225Z,0.95
2023-03-12T02:26:39.374Z,0.68
2023-03-12T02:32:20.448Z,0.93
2023-03-12T02:35:07.123Z,1.38
2023-03-12T02:37:56.636Z,1.58
2023-03-12T02:40:47.370Z,1.48
2023-03-12T02:43:32.888Z,1.27
2023-03-12T02:46:19.148Z,0.68
2023-03-12T02:49:04.863Z,1.75
2023-03-12T02:51:50.646Z,0.75
2023-03-12T02:54:36.204Z,1.88
2023-03-12T02:57:21.701Z,1.02
2023-03-12T03:00:13.526Z,1.75
2023-03-12T03:03:03.477Z,1.77
2023-03-12T03:05:49.171Z,1.42
2023-03-12T03:08:34.758Z,1.00
2023-03-12T03:11:24.275Z,1.00
2023-03-12T03:14:11.988Z,0.93
2023-03-12T03:16:57.988Z,1.08
2023-03-12T03:19:43.590Z,0.60
2023-03-12T03:22:28.886Z,1.55
2023-03-12T03:25:14.601Z,1.45
2023-03-12T03:28:00.146Z,1.38
2023-03-12T03:30:45.889Z,2.22
2023-03-12T03:33:34.479Z,1.87
2023-03-12T03:36:20.791Z,1.08
2023-03-12T03:39:19.017Z,1.58
2023-03-12T03:42:05.533Z,1.45
2023-03-12T03:44:52.032Z,1.13
2023-03-12T03:47:38.240Z,2.13
2023-03-12T03:50:25.804Z,1.20
2023-03-12T03:53:12.640Z,1.45
2023-03-12T03:55:58.931Z,1.38
2023-03-12T03:58:44.828Z,0.50
2023-03-12T04:01:31.480Z,1.98
2023-03-12T04:04:18.556Z,1.08
2023-03-12T04:07:04.257Z,1.23
2023-03-12T04:09:49.723Z,0.70
2023-03-12T04:12:36.066Z,2.40
2023-03-12T04:15:21.720Z,1.48
2023-03-12T04:18:07.841Z,1.43
2023-03-12T04:20:53.677Z,0.93
2023-03-12T04:23:39.410Z,0.60
2023-03-12T04:26:26.204Z,1.05
2023-03-12T04:29:12.538Z,2.37
2023-03-12T04:32:01.292Z,1.90
2023-03-12T04:34:46.573Z,0.50
2023-03-12T04:37:35.110Z,1.52
2023-03-12T04:40:21.353Z,1.92
2023-03-12T04:43:06.925Z,2.58
2023-03-12T04:45:52.344Z,1.90
2023-03-12T04:48:37.768Z,0.98
2023-03-12T04:51:23.166Z,0.60
2023-03-12T04:54:11.569Z,1.30
2023-03-12T04:56:58.898Z,1.27
2023-03-12T04:59:45.443Z,1.17
2023-03-12T05:02:31.444Z,1.10
2023-03-12T05:05:17.082Z,0.60
2023-03-12T05:08:03.905Z,2.25
2023-03-12T05:10:51.044Z,2.00
2023-03-12T05:13:36.410Z,3.22
2023-03-12T05:16:22.064Z,0.70
2023-03-12T05:19:08.006Z,1.65
2023-03-12T05:21:54.167Z,1.25
2023-03-12T05:24:40.114Z,0.57
2023-03-12T05:27:26.238Z,0.95
2023-03-12T05:32:59.092Z,1.35
2023-03-12T05:35:44.849Z,1.15
2023-03-12T05:38:31.029Z,0.90
2023-03-12T05:41:22.941Z,1.20
2023-03-12T05:44:13.702Z,0.52
2023-03-12T05:47:00.746Z,0.70
2023-03-12T05:49:47.680Z,1.92
2023-03-12T05:55:19.145Z,0.88
2023-03-12T05:58:06.185Z,1.25
2023-03-12T06:00:52.029Z,2.20
2023-03-12T06:03:37.904Z,1.50
2023-03-12T06:06:23.855Z,1.45
2023-03-12T06:09:09.969Z,0.52
2023-03-12T06:11:55.552Z,1.05
2023-03-12T06:14:40.992Z,0.88
2023-03-12T06:17:26.389Z,2.10
2023-03-12T06:20:12.553Z,1.15
2023-03-12T06:22:57.804Z,1.35
2023-03-12T06:25:45.541Z,0.90
2023-03-12T06:28:33.059Z,2.03
2023-03-12T06:31:20.273Z,1.10
2023-03-12T06:34:06.257Z,1.83
2023-03-12T06:36:52.011Z,1.27
2023-03-12T06:39:37.900Z,1.35
2023-03-12T06:42:23.567Z,2.80
2023-03-12T06:45:09.846Z,0.90
2023-03-12T06:47:55.435Z,1.52
2023-03-12T06:50:40.849Z,2.45
2023-03-12T06:53:27.246Z,1.25
2023-03-12T06:56:13.815Z,2.60
2023-03-12T06:58:59.265Z,1.35
2023-03-12T07:01:44.579Z,1.25
2023-03-12T07:04:30.023Z,1.55
2023-03-12T07:07:17.174Z,1.55
2023-03-12T07:12:48.403Z,1.80
2023-03-12T07:15:34.088Z,1.20
2023-03-12T07:18:19.780Z,1.38
2023-03-12T07:21:05.466Z,2.95
2023-03-12T07:23:51.908Z,0.70
2023-03-12T07:26:37.508Z,2.22
2023-03-12T07:29:22.849Z,0.60
2023-03-12T07:32:08.446Z,1.60
2023-03-12T07:34:54.282Z,1.15
2023-03-12T07:37:39.625Z,2.03
2023-03-12T07:40:25.300Z,2.25
2023-03-12T07:43:12.756Z,1.58
2023-03-12T07:45:59.768Z,1.80
2023-03-12T07:48:45.067Z,1.88
2023-03-12T07:51:30.853Z,1.55
2023-03-12T07:54:16.912Z,1.95
2023-03-12T07:57:02.961Z,2.17
2023-03-12T07:59:48.752Z,2.05
2023-03-12T08:02:34.889Z,1.67
2023-03-12T08:05:24.676Z,2.22
2023-03-12T08:08:10.286Z,1.63
2023-03-12T08:10:55.961Z,2.45
2023-03-12T08:13:41.307Z,1.75
2023-03-12T08:16:26.552Z,2.20
2023-03-12T08:19:11.969Z,1.58
2023-03-12T08:21:58.103Z,1.02
2023-03-12T08:24:44.140Z,1.67
2023-03-12T08:27:29.441Z,2.65
2023-03-12T08:30:14.929Z,2.10
2023-03-12T08:33:00.486Z,2.75
2023-03-12T08:35:46.419Z,1.45
2023-03-12T08:38:31.886Z,1.65
2023-03-12T08:41:17.620Z,2.22
2023-03-12T08:44:03.249Z,1.88
2023-03-12T08:46:48.918Z,1.23
2023-03-12T08:49:34.262Z,2.42
2023-03-12T08:52:19.858Z,3.28
2023-03-12T08:55:06.181Z,2.95
2023-03-12T08:57:51.683Z,2.78
2023-03-12T09:00:37.205Z,2.00
2023-03-12T09:03:24.259Z,0.80
2023-03-12T09:06:14.776Z,2.60
2023-03-12T09:09:04.948Z,0.98
2023-03-12T09:11:50.368Z,8.13
2023-03-12T09:15:02.501Z,4.95
2023-03-12T09:17:41.522Z,4.15
2023-03-12T09:20:27.202Z,1.75
2023-03-12T09:23:12.608Z,1.80
2023-03-12T09:25:58.029Z,1.70
2023-03-12T09:28:44.872Z,1.90
2023-03-12T09:31:30.363Z,1.95
2023-03-12T09:34:16.196Z,1.40
2023-03-12T09:37:01.836Z,1.67
2023-03-12T09:39:49.904Z,1.70
2023-03-12T09:42:47.240Z,3.47
2023-03-12T09:45:39.155Z,2.92
2023-03-12T09:48:38.047Z,2.30
2023-03-12T09:51:29.705Z,2.53
2023-03-12T09:54:47.505Z,2.22
2023-03-12T09:57:34.582Z,1.48
2023-03-12T10:00:23.061Z,1.45
2023-03-12T10:03:26.082Z,1.55
2023-03-12T10:06:20.546Z,1.75
2023-03-12T10:09:26.599Z,2.50
2023-03-12T10:12:24.522Z,1.42
2023-03-12T10:15:16.303Z,2.33
2023-03-12T10:18:21.355Z,2.03
2023-03-12T10:21:07.642Z,3.47
2023-03-12T10:24:01.905Z,1.73
2023-03-12T10:26:51.637Z,2.50
2023-03-12T10:29:44.471Z,2.50
2023-03-12T10:32:39.150Z,2.13
2023-03-12T10:35:27.934Z,1.90
2023-03-12T10:38:29.160Z,1.77
2023-03-12T10:41:34.998Z,2.20
2023-03-12T10:44:24.015Z,1.20
2023-03-12T10:47:36.009Z,1.10
2023-03-12T10:50:27.468Z,1.40
2023-03-12T10:53:29.628Z,1.98
2023-03-12T10:56:18.525Z,1.70
2023-03-12T10:59:21.056Z,1.60
2023-03-12T11:02:43.993Z,2.47
2023-03-12T11:05:35.937Z,3.03
2023-03-12T11:08:30.542Z,1.83
2023-03-12T11:11:31.666Z,1.40
2023-03-12T11:14:26.214Z,1.98
2023-03-12T11:17:27.748Z,2.60
2023-03-12T11:20:26.409Z,2.08
2023-03-12T11:23:18.418Z,4.75
2023-03-12T11:26:12.057Z,2.40
2023-03-12T11:29:16.040Z,2.78
2023-03-12T11:32:07.676Z,2.67
2023-03-12T11:34:53.359Z,2.58
2023-03-12T11:38:17.316Z,1.85
2023-03-12T11:41:18.159Z,1.48
2023-03-12T11:44:36.002Z,1.85
2023-03-12T11:47:33.800Z,1.88
2023-03-12T11:50:34.541Z,2.30
2023-03-12T11:53:35.428Z,2.08
2023-03-12T11:56:30.181Z,1.23
2023-03-12T11:59:18.641Z,1.33
2023-03-12T12:02:21.928Z,0.90
2023-03-12T12:05:29.274Z,1.63
2023-03-12T12:08:40.060Z,3.10
2023-03-12T12:11:47.467Z,2.17
2023-03-12T12:14:51.994Z,2.10
2023-03-12T12:17:55.885Z,2.10
2023-03-12T12:21:10.312Z,2.20
2023-03-12T12:24:21.945Z,1.33
2023-03-12T12:27:21.880Z,1.27
2023-03-12T12:30:14.586Z,1.55
2023-03-12T12:33:15.610Z,1.55
2023-03-12T12:36:02.599Z,1.70
2023-03-12T12:42:06.140Z,1.67
2023-03-12T12:44:55.198Z,1.45
2023-03-12T12:47:47.804Z,1.35
2023-03-12T12:50:38.379Z,0.73
2023-03-12T12:53:39.079Z,1.20
2023-03-12T12:56:51.921Z,1.50
2023-03-12T12:59:37.260Z,1.13
2023-03-12T13:02:29.478Z,1.40
2023-03-12T13:05:28.826Z,1.27
2023-03-12T13:08:34.598Z,1.10
2023-03-12T13:11:45.152Z,1.83
2023-03-12T13:14:40.815Z,1.67
2023-03-12T13:17:27.327Z,2.38
2023-03-12T13:20:17.915Z,1.35
2023-03-12T13:23:40.732Z,1.92
2023-03-12T13:26:51.246Z,1.52
2023-03-12T13:29:40.324Z,1.58
2023-03-12T13:32:35.031Z,1.20
2023-03-12T13:35:20.377Z,1.42
2023-03-12T13:38:37.041Z,1.20
2023-03-12T13:41:38.786Z,1.42
2023-03-12T13:44:27.208Z,1.20
2023-03-12T13:47:12.308Z,0.98
2023-03-12T13:50:17.235Z,1.65
2023-03-12T13:53:16.011Z,1.67
2023-03-12T13:56:05.654Z,0.88
2023-03-12T13:58:50.888Z,1.60
2023-03-12T14:01:41.316Z,1.52
2023-03-12T14:04:41.920Z,1.63
2023-03-12T14:07:53.487Z,1.45
2023-03-12T14:11:03.115Z,1.35
2023-03-12T14:14:07.041Z,1.42
2023-03-12T14:16:56.014Z,1.60
2023-03-12T14:19:47.263Z,1.95
2023-03-12T14:22:37.047Z,1.27
2023-03-12T14:25:26.245Z,1.83
2023-03-12T14:28:17.155Z,1.83
2023-03-12T14:31:08.182Z,1.40
2023-03-12T14:34:10.301Z,1.10
2023-03-12T14:36:55.454Z,1.20
2023-03-12T14:39:57.363Z,0.88
2023-03-12T14:42:42.639Z,1.25
2023-03-12T14:45:28.323Z,1.13
2023-03-12T14:48:13.905Z,1.67
2023-03-12T14:51:01.925Z,1.42
2023-03-12T14:53:48.162Z,1.85
2023-03-12T14:56:35.162Z,1.23
2023-03-12T14:59:26.344Z,0.73
2023-03-12T15:02:14.771Z,1.20
2023-03-12T15:05:02.062Z,1.02
2023-03-12T15:07:49.091Z,1.25
2023-03-12T15:10:34.886Z,0.98
2023-03-12T15:13:22.559Z,1.40
2023-03-12T15:16:08.599Z,1.60
2023-03-12T15:18:54.298Z,0.80
2023-03-12T15:21:39.923Z,0.90
2023-03-12T15:24:26.695Z,1.00
2023-03-12T15:27:28.797Z,1.20
2023-03-12T15:30:26.147Z,3.47
2023-03-12T15:33:17.898Z,1.05
2023-03-12T15:36:18.522Z,1.17
2023-03-12T15:39:20.477Z,1.27
2023-03-12T15:42:15.351Z,1.27
2023-03-12T15:45:05.241Z,1.40
2023-03-12T15:47:54.156Z,2.20
2023-03-12T15:50:45.595Z,5.82
2023-03-12T15:53:34.148Z,2.25
2023-03-12T15:56:23.718Z,2.17
2023-03-12T15:59:27.534Z,1.60
2023-03-12T16:02:13.345Z,1.08
2023-03-12T16:04:58.918Z,1.85
2023-03-12T16:07:44.396Z,0.98
2023-03-12T16:10:39.162Z,1.80
2023-03-12T16:13:31.385Z,1.15
2023-03-12T16:16:17.010Z,1.20
2023-03-12T16:19:04.152Z,0.95
2023-03-12T16:21:50.137Z,1.10
2023-03-12T16:24:35.890Z,0.95
2023-03-12T16:27:32.151Z,0.63
2023-03-12T16:30:24.507Z,1.25
2023-03-12T16:33:14.527Z,0.55
2023-03-12T16:36:01.242Z,1.40
2023-03-12T16:38:47.139Z,0.70
2023-03-12T16:41:33.139Z,1.20
2023-03-12T16:44:21.425Z,1.27
2023-03-12T16:47:12.005Z,0.70
2023-03-12T16:49:57.842Z,1.05
2023-03-12T16:52:46.900Z,0.70
2023-03-12T16:56:03.240Z,1.05
2023-03-12T16:58:49.895Z,1.15
2023-03-12T17:01:36.278Z,0.95
2023-03-12T17:04:22.041Z,1.75
2023-03-12T17:07:09.591Z,0.85
2023-03-12T17:12:41.424Z,1.00
2023-03-12T17:15:30.767Z,1.10
2023-03-12T17:18:16.779Z,1.13
2023-03-12T17:21:02.550Z,1.40
2023-03-12T17:23:50.461Z,2.05
2023-03-12T17:26:36.148Z,2.28
2023-03-12T17:29:21.535Z,1.98
2023-03-12T17:32:07.379Z,1.98
2023-03-12T17:34:59.838Z,1.67
2023-03-12T17:37:45.835Z,2.33
2023-03-12T17:40:31.314Z,2.10
2023-03-12T17:43:16.844Z,3.22
2023-03-12T17:46:06.866Z,3.33
2023-03-12T17:48:52.769Z,3.15
2023-03-12T17:51:38.725Z,2.95
2023-03-12T17:54:24.454Z,3.28
2023-03-12T17:57:09.655Z,3.25
2023-03-12T17:59:55.434Z,2.45
2023-03-12T18:02:41.626Z,3.08
2023-03-12T18:05:27.218Z,2.15
2023-03-12T18:08:12.644Z,2.92
2023-03-12T18:10:57.981Z,1.98
2023-03-12T18:13:43.230Z,2.42
2023-03-12T18:16:28.989Z,3.97
2023-03-12T18:19:14.647Z,5.38
2023-03-12T18:22:00.456Z,2.53
2023-03-12T18:24:45.801Z,4.28
2023-03-12T18:27:31.382Z,2.17
2023-03-12T18:30:18.722Z,8.63
2023-03-12T18:33:04.204Z,1.98
2023-03-12T18:35:49.759Z,12.07
2023-03-12T18:38:35.440Z,4.57
2023-03-12T18:41:21.192Z,15.23
2023-03-12T18:44:06.799Z,4.05
2023-03-12T18:46:53.915Z,3.38
2023-03-12T18:49:40.347Z,4.40
2023-03-12T18:52:25.880Z,2.55
2023-03-12T18:55:15.332Z,4.22
2023-03-12T18:58:00.554Z,2.33
2023-03-12T19:00:46.056Z,3.20
2023-03-12T19:03:36.125Z,3.67
2023-03-12T19:06:21.951Z,2.55
2023-03-12T19:09:09.245Z,2.85
2023-03-12T19:11:54.671Z,2.58
2023-03-12T19:14:40.125Z,3.17
2023-03-12T19:17:26.171Z,3.22
2023-03-12T19:20:12.208Z,2.80
2023-03-12T19:22:57.706Z,3.15
2023-03-12T19:25:43.203Z,3.15
2023-03-12T19:28:28.562Z,2.92
2023-03-12T19:31:15.227Z,3.25
2023-03-12T19:34:00.771Z,2.92
2023-03-12T19:36:46.179Z,2.97
2023-03-12T19:39:31.557Z,2.40
2023-03-12T19:42:16.693Z,2.45
2023-03-12T19:45:02.216Z,2.10
2023-03-12T19:47:47.468Z,3.30
2023-03-12T19:50:32.999Z,2.92
2023-03-12T19:53:19.669Z,2.53
2023-03-12T19:56:05.820Z,2.33
2023-03-12T19:58:51.563Z,3.28
2023-03-12T20:01:38.167Z,2.63
2023-03-12T20:04:23.811Z,2.42
2023-03-12T20:07:09.149Z,2.33
2023-03-12T20:09:54.390Z,2.55
2023-03-12T20:12:40.231Z,2.90
2023-03-12T20:15:26.527Z,2.85
2023-03-12T20:18:12.196Z,3.33
2023-03-12T20:20:57.683Z,3.08
2023-03-12T20:23:43.329Z,2.63
2023-03-12T20:26:28.909Z,3.58
2023-03-12T20:29:14.527Z,3.53
2023-03-12T20:32:00.103Z,2.70
2023-03-12T20:34:45.935Z,2.90
2023-03-12T20:37:31.178Z,2.05
2023-03-12T20:40:16.661Z,2.65
2023-03-12T20:43:05.126Z,2.15
2023-03-12T20:45:50.846Z,2.42
2023-03-12T20:48:36.432Z,2.22
2023-03-12T20:51:22.014Z,1.98
2023-03-12T20:54:07.319Z,2.28
2023-03-12T20:56:52.894Z,1.63
2023-03-12T20:59:38.246Z,2.45
2023-03-12T21:02:23.945Z,2.10
2023-03-12T21:05:11.418Z,1.42
2023-03-12T21:07:58.251Z,3.22
2023-03-12T21:10:43.754Z,2.90
2023-03-12T21:13:30.948Z,1.40
2023-03-12T21:16:16.563Z,2.63
2023-03-12T21:19:01.915Z,2.13
2023-03-12T21:21:47.420Z,1.33
2023-03-12T21:24:34.244Z,2.15
2023-03-12T21:27:19.704Z,1.95
2023-03-12T21:30:06.338Z,2.90
2023-03-12T21:32:51.788Z,2.95
2023-03-12T21:35:37.027Z,3.63
2023-03-12T21:38:22.387Z,3.47
2023-03-12T21:41:09.765Z,5.10
2023-03-12T21:43:55.077Z,3.83
2023-03-12T21:46:40.486Z,2.78
2023-03-12T21:49:25.753Z,4.47
2023-03-12T21:52:11.013Z,2.38
2023-03-12T21:54:56.257Z,3.97
2023-03-12T21:57:41.822Z,2.72
2023-03-12T22:00:27.504Z,2.33
2023-03-12T22:03:12.984Z,3.25
2023-03-12T22:05:58.537Z,4.68
2023-03-12T22:08:45.146Z,5.45
2023-03-12T22:11:30.804Z,2.47
2023-03-12T22:14:16.496Z,4.90
2023-03-12T22:17:02.104Z,2.85
2023-03-12T22:19:47.611Z,3.33
2023-03-12T22:22:33.649Z,3.03
2023-03-12T22:25:18.911Z,2.58
2023-03-12T22:28:04.411Z,2.40
2023-03-12T22:30:49.906Z,3.30
2023-03-12T22:33:36.751Z,3.42
2023-03-12T22:36:23.231Z,2.10
2023-03-12T22:39:09.183Z,3.20
2023-03-12T22:41:54.656Z,3.33
2023-03-12T22:44:42.892Z,2.10
2023-03-12T22:47:28.132Z,2.13
2023-03-12T22:50:13.632Z,3.20
2023-03-12T22:52:59.358Z,1.90
2023-03-12T22:55:44.740Z,1.02
2023-03-12T22:58:30.399Z,2.55
2023-03-12T23:01:20.232Z,2.50
2023-03-12T23:04:06.490Z,2.17
2023-03-12T23:06:52.803Z,2.40
2023-03-12T23:09:40.459Z,2.28
2023-03-12T23:12:25.984Z,2.65
2023-03-12T23:15:11.554Z,2.03
2023-03-12T23:17:57.016Z,1.75
2023-03-12T23:20:42.469Z,2.90
2023-03-12T23:23:28.584Z,1.85
2023-03-12T23:26:23.479Z,1.88
2023-03-12T23:29:11.958Z,1.98
2023-03-12T23:31:57.570Z,2.45
2023-03-12T23:34:43.351Z,1.90
2023-03-12T23:37:28.713Z,2.33
2023-03-12T23:40:16.798Z,2.03
2023-03-12T23:43:02.390Z,2.78
2023-03-12T23:45:54.842Z,1.73
2023-03-12T23:48:40.845Z,1.77
2023-03-12T23:51:31.874Z,2.10
2023-03-12T23:54:17.270Z,2.05
2023-03-12T23:57:02.708Z,1.88
2023-03-12T23:59:48.109Z,1.33
